RYR46KJ LIEE-LIME
Flight info
| Callsign | RYR46KJ |
|---|---|
| Flight time | 1h 12m |
| Altitude | 34000 |
| Route | KOVAS Q125 DEXUL DCT PIDUL DCT MAMAR DCT ROSKI DCT LOMED DCT IPLUB DCT OSBUL |
| Aircraft | B38M/M-SDE1FGHILORVWXY/HB1 |
Departure
| Time | 2026-05-06 15:55 |
|---|---|
| Airport | Cagliari Elmas Airport (LIEE) |
Arrival
| Time | 2026-05-06 17:07 |
|---|---|
| Airport | Il Caravaggio International Airport (LIME) |
| Time | Latitude | Longitude | Altitude | Speed | Heading |
|---|---|---|---|---|---|
| 2026-05-06 15:18 | 39.24969 | 9.05996 | 19 ft | 0 kts | 233° |
| 2026-05-06 15:46 | 39.24983 | 9.06011 | 19 ft | 4 kts | 171° |
| 2026-05-06 15:46 | 39.24998 | 9.06002 | 19 ft | 4 kts | 141° |
| 2026-05-06 15:46 | 39.25006 | 9.05993 | 19 ft | 1 kts | 136° |
| 2026-05-06 15:50 | 39.25006 | 9.05995 | 19 ft | 1 kts | 114° |
| 2026-05-06 15:50 | 39.24993 | 9.06065 | 19 ft | 15 kts | 104° |
| 2026-05-06 15:50 | 39.24896 | 9.06208 | 19 ft | 27 kts | 143° |
| 2026-05-06 15:50 | 39.24733 | 9.06347 | 18 ft | 29 kts | 147° |
| 2026-05-06 15:51 | 39.24558 | 9.06489 | 18 ft | 30 kts | 148° |
| 2026-05-06 15:51 | 39.24433 | 9.06582 | 18 ft | 18 kts | 162° |
| 2026-05-06 15:51 | 39.24355 | 9.06573 | 18 ft | 3 kts | 198° |
| 2026-05-06 15:51 | 39.24331 | 9.06563 | 18 ft | 5 kts | 198° |
| 2026-05-06 15:52 | 39.24296 | 9.06549 | 18 ft | 6 kts | 198° |
| 2026-05-06 15:52 | 39.24255 | 9.06527 | 21 ft | 7 kts | 213° |
| 2026-05-06 15:52 | 39.24246 | 9.06475 | 21 ft | 7 kts | 301° |
| 2026-05-06 15:52 | 39.24260 | 9.06454 | 19 ft | 0 kts | 317° |
| 2026-05-06 15:54 | 39.24342 | 9.06359 | 19 ft | 45 kts | 318° |
| 2026-05-06 15:54 | 39.24735 | 9.05906 | 20 ft | 104 kts | 318° |
| 2026-05-06 15:54 | 39.25398 | 9.05140 | 20 ft | 150 kts | 318° |
| 2026-05-06 15:54 | 39.26238 | 9.04180 | 286 ft | 165 kts | 318° |
| 2026-05-06 15:55 | 39.27100 | 9.03158 | 781 ft | 173 kts | 319° |
| 2026-05-06 15:55 | 39.28138 | 9.02411 | 1348 ft | 173 kts | 348° |
| 2026-05-06 15:55 | 39.29350 | 9.02411 | 1921 ft | 179 kts | 6° |
| 2026-05-06 15:55 | 39.30589 | 9.02612 | 2531 ft | 184 kts | 7° |
| 2026-05-06 15:56 | 39.31878 | 9.02844 | 3119 ft | 192 kts | 8° |
| 2026-05-06 15:56 | 39.33271 | 9.03089 | 3499 ft | 212 kts | 7° |
| 2026-05-06 15:56 | 39.34798 | 9.03318 | 3951 ft | 226 kts | 5° |
| 2026-05-06 15:56 | 39.36371 | 9.03532 | 4827 ft | 226 kts | 5° |
| 2026-05-06 15:57 | 39.37957 | 9.03738 | 5583 ft | 234 kts | 4° |
| 2026-05-06 15:57 | 39.39605 | 9.03939 | 6323 ft | 239 kts | 5° |
| 2026-05-06 15:57 | 39.41292 | 9.04141 | 7002 ft | 247 kts | 5° |
| 2026-05-06 15:57 | 39.43012 | 9.04341 | 7718 ft | 250 kts | 5° |
| 2026-05-06 15:58 | 39.44759 | 9.04543 | 8411 ft | 255 kts | 5° |
| 2026-05-06 15:58 | 39.46576 | 9.04771 | 8858 ft | 273 kts | 5° |
| 2026-05-06 15:58 | 39.48533 | 9.05021 | 9249 ft | 291 kts | 5° |
| 2026-05-06 15:58 | 39.50579 | 9.05280 | 9678 ft | 307 kts | 5° |
| 2026-05-06 15:59 | 39.52732 | 9.05553 | 10300 ft | 315 kts | 4° |
| 2026-05-06 15:59 | 39.54977 | 9.05838 | 10665 ft | 334 kts | 4° |
| 2026-05-06 15:59 | 39.57359 | 9.06140 | 10987 ft | 353 kts | 4° |
| 2026-05-06 15:59 | 39.59842 | 9.06456 | 11497 ft | 365 kts | 4° |
| 2026-05-06 16:00 | 39.62405 | 9.06781 | 12053 ft | 373 kts | 3° |
| 2026-05-06 16:00 | 39.65001 | 9.07196 | 12787 ft | 379 kts | 11° |
| 2026-05-06 16:00 | 39.67563 | 9.08123 | 13526 ft | 383 kts | 13° |
| 2026-05-06 16:00 | 39.70150 | 9.09023 | 14234 ft | 387 kts | 12° |
| 2026-05-06 16:01 | 39.72780 | 9.09909 | 14961 ft | 392 kts | 12° |
| 2026-05-06 16:01 | 39.75428 | 9.10783 | 15717 ft | 394 kts | 12° |
| 2026-05-06 16:01 | 39.78105 | 9.11659 | 16376 ft | 400 kts | 12° |
| 2026-05-06 16:01 | 39.80816 | 9.12542 | 17050 ft | 403 kts | 11° |
| 2026-05-06 16:02 | 39.83518 | 9.13422 | 17695 ft | 407 kts | 12° |
| 2026-05-06 16:02 | 39.86397 | 9.14976 | 18394 ft | 414 kts | 31° |
| 2026-05-06 16:02 | 39.88741 | 9.17180 | 19009 ft | 419 kts | 36° |
| 2026-05-06 16:02 | 39.91100 | 9.19472 | 19542 ft | 424 kts | 36° |
| 2026-05-06 16:03 | 39.93462 | 9.21799 | 20077 ft | 428 kts | 36° |
| 2026-05-06 16:03 | 39.95846 | 9.24155 | 20602 ft | 433 kts | 33° |
| 2026-05-06 16:03 | 39.98532 | 9.25915 | 21062 ft | 431 kts | 13° |
| 2026-05-06 16:03 | 40.01454 | 9.26776 | 21560 ft | 435 kts | 12° |
| 2026-05-06 16:04 | 40.04319 | 9.28010 | 22054 ft | 439 kts | 15° |
| 2026-05-06 16:04 | 40.07236 | 9.29252 | 22532 ft | 443 kts | 15° |
| 2026-05-06 16:04 | 40.10188 | 9.30479 | 22990 ft | 447 kts | 14° |
| 2026-05-06 16:04 | 40.13169 | 9.31700 | 23394 ft | 452 kts | 14° |
| 2026-05-06 16:05 | 40.16183 | 9.32927 | 23844 ft | 454 kts | 14° |
| 2026-05-06 16:05 | 40.19212 | 9.34160 | 24270 ft | 458 kts | 14° |
| 2026-05-06 16:05 | 40.22269 | 9.35404 | 24709 ft | 462 kts | 14° |
| 2026-05-06 16:05 | 40.25352 | 9.36662 | 25145 ft | 465 kts | 14° |
| 2026-05-06 16:06 | 40.28449 | 9.37924 | 25558 ft | 468 kts | 14° |
| 2026-05-06 16:06 | 40.31572 | 9.39200 | 25960 ft | 471 kts | 14° |
| 2026-05-06 16:06 | 40.34712 | 9.40483 | 26369 ft | 474 kts | 14° |
| 2026-05-06 16:06 | 40.37873 | 9.41777 | 26739 ft | 477 kts | 14° |
| 2026-05-06 16:07 | 40.41047 | 9.43077 | 27119 ft | 480 kts | 14° |
| 2026-05-06 16:07 | 40.44245 | 9.44388 | 27460 ft | 482 kts | 14° |
| 2026-05-06 16:07 | 40.47463 | 9.45707 | 27843 ft | 485 kts | 14° |
| 2026-05-06 16:07 | 40.50658 | 9.47019 | 28167 ft | 487 kts | 14° |
| 2026-05-06 16:08 | 40.53904 | 9.48353 | 28496 ft | 490 kts | 14° |
| 2026-05-06 16:08 | 40.57170 | 9.49699 | 28810 ft | 493 kts | 14° |
| 2026-05-06 16:08 | 40.60450 | 9.51049 | 29159 ft | 495 kts | 14° |
| 2026-05-06 16:08 | 40.63736 | 9.52405 | 29489 ft | 497 kts | 14° |
| 2026-05-06 16:09 | 40.67054 | 9.53775 | 29801 ft | 499 kts | 14° |
| 2026-05-06 16:09 | 40.70379 | 9.55149 | 30099 ft | 502 kts | 14° |
| 2026-05-06 16:09 | 40.73726 | 9.56534 | 30414 ft | 503 kts | 14° |
| 2026-05-06 16:09 | 40.77070 | 9.57918 | 30676 ft | 506 kts | 14° |
| 2026-05-06 16:10 | 40.80437 | 9.59313 | 30966 ft | 508 kts | 14° |
| 2026-05-06 16:10 | 40.83818 | 9.60717 | 31239 ft | 511 kts | 14° |
| 2026-05-06 16:10 | 40.87225 | 9.62132 | 31511 ft | 512 kts | 14° |
| 2026-05-06 16:10 | 40.90624 | 9.63546 | 31856 ft | 513 kts | 14° |
| 2026-05-06 16:11 | 40.94032 | 9.64964 | 32214 ft | 512 kts | 13° |
| 2026-05-06 16:11 | 40.97389 | 9.66363 | 32537 ft | 512 kts | 13° |
| 2026-05-06 16:11 | 41.00831 | 9.67798 | 32897 ft | 512 kts | 13° |
| 2026-05-06 16:11 | 41.04183 | 9.69198 | 33200 ft | 512 kts | 13° |
| 2026-05-06 16:12 | 41.07578 | 9.70617 | 33521 ft | 512 kts | 13° |
| 2026-05-06 16:12 | 41.10978 | 9.72040 | 33841 ft | 512 kts | 13° |
| 2026-05-06 16:12 | 41.14382 | 9.73465 | 33971 ft | 513 kts | 13° |
| 2026-05-06 16:12 | 41.17789 | 9.74895 | 33951 ft | 512 kts | 13° |
| 2026-05-06 16:13 | 41.24572 | 9.77745 | 33948 ft | 512 kts | 13° |
| 2026-05-06 16:13 | 41.31370 | 9.80608 | 33948 ft | 512 kts | 13° |
| 2026-05-06 16:14 | 41.38155 | 9.83471 | 33924 ft | 511 kts | 13° |
| 2026-05-06 16:14 | 41.44939 | 9.86339 | 33918 ft | 512 kts | 13° |
| 2026-05-06 16:15 | 41.51743 | 9.89225 | 33917 ft | 512 kts | 13° |
| 2026-05-06 16:15 | 41.58493 | 9.92091 | 33915 ft | 512 kts | 12° |
| 2026-05-06 16:16 | 41.65272 | 9.94979 | 33910 ft | 512 kts | 12° |
| 2026-05-06 16:16 | 41.72066 | 9.97877 | 33914 ft | 512 kts | 12° |
| 2026-05-06 16:17 | 41.78854 | 10.00780 | 33914 ft | 511 kts | 12° |
| 2026-05-06 16:17 | 41.85634 | 10.03686 | 33916 ft | 512 kts | 12° |
| 2026-05-06 16:18 | 41.92390 | 10.06588 | 33915 ft | 512 kts | 12° |
| 2026-05-06 16:18 | 41.99173 | 10.09509 | 33908 ft | 512 kts | 12° |
| 2026-05-06 16:19 | 42.05949 | 10.12432 | 33915 ft | 512 kts | 12° |
| 2026-05-06 16:19 | 42.12735 | 10.15367 | 33916 ft | 512 kts | 12° |
| 2026-05-06 16:20 | 42.19519 | 10.18308 | 33916 ft | 511 kts | 12° |
| 2026-05-06 16:20 | 42.26289 | 10.21248 | 33925 ft | 511 kts | 13° |
| 2026-05-06 16:21 | 42.33058 | 10.24195 | 33926 ft | 511 kts | 13° |
| 2026-05-06 16:21 | 42.39823 | 10.27148 | 33919 ft | 510 kts | 13° |
| 2026-05-06 16:22 | 42.46574 | 10.30100 | 33926 ft | 509 kts | 13° |
| 2026-05-06 16:22 | 42.53280 | 10.33040 | 33933 ft | 509 kts | 13° |
| 2026-05-06 16:23 | 42.58937 | 10.35525 | 33934 ft | 510 kts | 13° |
| 2026-05-06 16:23 | 42.66770 | 10.38973 | 33939 ft | 509 kts | 13° |
| 2026-05-06 16:24 | 42.72362 | 10.41440 | 33942 ft | 508 kts | 13° |
| 2026-05-06 16:24 | 42.79086 | 10.44414 | 33940 ft | 507 kts | 13° |
| 2026-05-06 16:25 | 42.85808 | 10.47394 | 33934 ft | 507 kts | 13° |
| 2026-05-06 16:25 | 42.92508 | 10.50370 | 33934 ft | 506 kts | 13° |
| 2026-05-06 16:26 | 42.99202 | 10.53349 | 33928 ft | 505 kts | 13° |
| 2026-05-06 16:26 | 43.05886 | 10.56333 | 33936 ft | 505 kts | 14° |
| 2026-05-06 16:27 | 43.12564 | 10.59320 | 33935 ft | 505 kts | 14° |
| 2026-05-06 16:27 | 43.19208 | 10.62298 | 33935 ft | 505 kts | 14° |
| 2026-05-06 16:28 | 43.25883 | 10.65298 | 33931 ft | 505 kts | 14° |
| 2026-05-06 16:28 | 43.32554 | 10.68302 | 33936 ft | 504 kts | 14° |
| 2026-05-06 16:29 | 43.39230 | 10.71316 | 33939 ft | 504 kts | 14° |
| 2026-05-06 16:29 | 43.45856 | 10.74314 | 33943 ft | 504 kts | 14° |
| 2026-05-06 16:30 | 43.51452 | 10.76851 | 33922 ft | 505 kts | 14° |
| 2026-05-06 16:30 | 43.59191 | 10.80371 | 33932 ft | 503 kts | 14° |
| 2026-05-06 16:31 | 43.65854 | 10.83406 | 33931 ft | 504 kts | 14° |
| 2026-05-06 16:31 | 43.72510 | 10.86445 | 33895 ft | 502 kts | 14° |
| 2026-05-06 16:32 | 43.79130 | 10.89473 | 33917 ft | 506 kts | 14° |
| 2026-05-06 16:32 | 43.85836 | 10.92552 | 33974 ft | 506 kts | 14° |
| 2026-05-06 16:33 | 43.92522 | 10.95630 | 33933 ft | 505 kts | 14° |
| 2026-05-06 16:34 | 44.02591 | 10.97938 | 33931 ft | 482 kts | 345° |
| 2026-05-06 16:34 | 44.05785 | 10.96781 | 33953 ft | 470 kts | 330° |
| 2026-05-06 16:34 | 44.08668 | 10.94794 | 33593 ft | 456 kts | 322° |
| 2026-05-06 16:34 | 44.11456 | 10.92650 | 32759 ft | 463 kts | 327° |
| 2026-05-06 16:35 | 44.17046 | 10.88998 | 32033 ft | 446 kts | 327° |
| 2026-05-06 16:35 | 44.19858 | 10.87101 | 31722 ft | 455 kts | 327° |
| 2026-05-06 16:35 | 44.22737 | 10.85146 | 31373 ft | 464 kts | 327° |
| 2026-05-06 16:36 | 44.25657 | 10.83158 | 31022 ft | 469 kts | 327° |
| 2026-05-06 16:36 | 44.28610 | 10.81144 | 30684 ft | 472 kts | 327° |
| 2026-05-06 16:36 | 44.31564 | 10.79126 | 30352 ft | 473 kts | 327° |
| 2026-05-06 16:36 | 44.34513 | 10.77109 | 30020 ft | 473 kts | 327° |
| 2026-05-06 16:37 | 44.37480 | 10.75078 | 29664 ft | 472 kts | 327° |
| 2026-05-06 16:37 | 44.40419 | 10.73064 | 29285 ft | 470 kts | 327° |
| 2026-05-06 16:37 | 44.43348 | 10.71052 | 28899 ft | 468 kts | 327° |
| 2026-05-06 16:37 | 44.46263 | 10.69051 | 28656 ft | 467 kts | 327° |
| 2026-05-06 16:38 | 44.49142 | 10.67069 | 28464 ft | 466 kts | 327° |
| 2026-05-06 16:38 | 44.52053 | 10.65065 | 28263 ft | 466 kts | 327° |
| 2026-05-06 16:38 | 44.54957 | 10.63064 | 28057 ft | 465 kts | 327° |
| 2026-05-06 16:38 | 44.57855 | 10.61064 | 27684 ft | 463 kts | 327° |
| 2026-05-06 16:39 | 44.60729 | 10.59079 | 27045 ft | 458 kts | 327° |
| 2026-05-06 16:39 | 44.63585 | 10.57104 | 26419 ft | 456 kts | 327° |
| 2026-05-06 16:39 | 44.66419 | 10.55141 | 25822 ft | 453 kts | 327° |
| 2026-05-06 16:39 | 44.69243 | 10.53184 | 25227 ft | 451 kts | 327° |
| 2026-05-06 16:40 | 44.72053 | 10.51235 | 24622 ft | 448 kts | 327° |
| 2026-05-06 16:40 | 44.74842 | 10.49298 | 24037 ft | 445 kts | 327° |
| 2026-05-06 16:40 | 44.77612 | 10.47370 | 23457 ft | 442 kts | 327° |
| 2026-05-06 16:40 | 44.80333 | 10.45476 | 22865 ft | 439 kts | 327° |
| 2026-05-06 16:41 | 44.83056 | 10.43581 | 22303 ft | 436 kts | 327° |
| 2026-05-06 16:41 | 44.85770 | 10.41686 | 21738 ft | 433 kts | 328° |
| 2026-05-06 16:41 | 44.88463 | 10.39806 | 21177 ft | 430 kts | 328° |
| 2026-05-06 16:41 | 44.91138 | 10.37935 | 20620 ft | 428 kts | 328° |
| 2026-05-06 16:42 | 44.93803 | 10.36070 | 20067 ft | 426 kts | 328° |
| 2026-05-06 16:42 | 44.96456 | 10.34210 | 19535 ft | 423 kts | 328° |
| 2026-05-06 16:42 | 44.99086 | 10.32366 | 18989 ft | 421 kts | 328° |
| 2026-05-06 16:42 | 45.01703 | 10.30530 | 18462 ft | 419 kts | 328° |
| 2026-05-06 16:43 | 45.04306 | 10.28696 | 17931 ft | 417 kts | 328° |
| 2026-05-06 16:43 | 45.06907 | 10.26869 | 17405 ft | 417 kts | 329° |
| 2026-05-06 16:43 | 45.09503 | 10.25046 | 16899 ft | 415 kts | 329° |
| 2026-05-06 16:43 | 45.12074 | 10.23232 | 16389 ft | 412 kts | 329° |
| 2026-05-06 16:44 | 45.14604 | 10.21445 | 15888 ft | 409 kts | 329° |
| 2026-05-06 16:44 | 45.17135 | 10.19657 | 15398 ft | 405 kts | 329° |
| 2026-05-06 16:44 | 45.19648 | 10.17880 | 14918 ft | 402 kts | 329° |
| 2026-05-06 16:44 | 45.22144 | 10.16115 | 14437 ft | 398 kts | 329° |
| 2026-05-06 16:45 | 45.24606 | 10.14372 | 14078 ft | 391 kts | 329° |
| 2026-05-06 16:45 | 45.27007 | 10.12670 | 13927 ft | 382 kts | 329° |
| 2026-05-06 16:45 | 45.29340 | 10.11013 | 13785 ft | 368 kts | 329° |
| 2026-05-06 16:45 | 45.31609 | 10.09402 | 13543 ft | 360 kts | 329° |
| 2026-05-06 16:46 | 45.33818 | 10.07830 | 13402 ft | 350 kts | 329° |
| 2026-05-06 16:46 | 45.35959 | 10.06307 | 13256 ft | 337 kts | 328° |
| 2026-05-06 16:46 | 45.38019 | 10.04840 | 13110 ft | 324 kts | 328° |
| 2026-05-06 16:46 | 45.39992 | 10.03434 | 12966 ft | 311 kts | 328° |
| 2026-05-06 16:47 | 45.41887 | 10.02082 | 12826 ft | 299 kts | 328° |
| 2026-05-06 16:47 | 45.43706 | 10.00782 | 12684 ft | 287 kts | 328° |
| 2026-05-06 16:47 | 45.45456 | 9.99533 | 12547 ft | 278 kts | 328° |
| 2026-05-06 16:47 | 45.47157 | 9.98318 | 12404 ft | 275 kts | 328° |
| 2026-05-06 16:48 | 45.48854 | 9.97050 | 12223 ft | 273 kts | 321° |
| 2026-05-06 16:48 | 45.50106 | 9.95144 | 11847 ft | 258 kts | 291° |
| 2026-05-06 16:48 | 45.50754 | 9.92812 | 11642 ft | 253 kts | 287° |
| 2026-05-06 16:48 | 45.51422 | 9.90483 | 11347 ft | 253 kts | 287° |
| 2026-05-06 16:49 | 45.52095 | 9.88114 | 10969 ft | 259 kts | 287° |
| 2026-05-06 16:49 | 45.52756 | 9.85733 | 10665 ft | 257 kts | 287° |
| 2026-05-06 16:49 | 45.53399 | 9.83373 | 10329 ft | 252 kts | 287° |
| 2026-05-06 16:49 | 45.54019 | 9.81078 | 10111 ft | 245 kts | 287° |
| 2026-05-06 16:50 | 45.54621 | 9.78829 | 9834 ft | 237 kts | 288° |
| 2026-05-06 16:50 | 45.55246 | 9.76662 | 9516 ft | 232 kts | 286° |
| 2026-05-06 16:50 | 45.55791 | 9.74533 | 9202 ft | 230 kts | 288° |
| 2026-05-06 16:50 | 45.56361 | 9.72387 | 8800 ft | 233 kts | 288° |
| 2026-05-06 16:51 | 45.56942 | 9.70243 | 8510 ft | 229 kts | 288° |
| 2026-05-06 16:51 | 45.57503 | 9.68160 | 8293 ft | 229 kts | 287° |
| 2026-05-06 16:51 | 45.58074 | 9.66032 | 8064 ft | 227 kts | 289° |
| 2026-05-06 16:51 | 45.58649 | 9.63937 | 7919 ft | 224 kts | 289° |
| 2026-05-06 16:52 | 45.59213 | 9.61843 | 7750 ft | 224 kts | 288° |
| 2026-05-06 16:52 | 45.59768 | 9.59739 | 7383 ft | 229 kts | 288° |
| 2026-05-06 16:52 | 45.60329 | 9.57613 | 7042 ft | 227 kts | 288° |
| 2026-05-06 16:52 | 45.60890 | 9.55528 | 6780 ft | 222 kts | 288° |
| 2026-05-06 16:53 | 45.61347 | 9.53422 | 6491 ft | 222 kts | 283° |
| 2026-05-06 16:53 | 45.61755 | 9.51308 | 6290 ft | 219 kts | 283° |
| 2026-05-06 16:53 | 45.62130 | 9.49215 | 6107 ft | 219 kts | 282° |
| 2026-05-06 16:53 | 45.62518 | 9.47107 | 5978 ft | 219 kts | 283° |
| 2026-05-06 16:54 | 45.62915 | 9.45008 | 5941 ft | 219 kts | 284° |
| 2026-05-06 16:54 | 45.63635 | 9.43111 | 5962 ft | 221 kts | 309° |
| 2026-05-06 16:54 | 45.64683 | 9.41474 | 5985 ft | 221 kts | 301° |
| 2026-05-06 16:54 | 45.65021 | 9.39389 | 5887 ft | 223 kts | 257° |
| 2026-05-06 16:55 | 45.64288 | 9.37460 | 5892 ft | 228 kts | 220° |
| 2026-05-06 16:55 | 45.62826 | 9.36603 | 5879 ft | 237 kts | 181° |
| 2026-05-06 16:55 | 45.61230 | 9.37165 | 5920 ft | 243 kts | 149° |
| 2026-05-06 16:55 | 45.60140 | 9.38985 | 5927 ft | 247 kts | 112° |
| 2026-05-06 16:56 | 45.59773 | 9.41406 | 5982 ft | 254 kts | 95° |
| 2026-05-06 16:56 | 45.59771 | 9.43953 | 5984 ft | 258 kts | 89° |
| 2026-05-06 16:56 | 45.59862 | 9.46514 | 5981 ft | 258 kts | 86° |
| 2026-05-06 16:56 | 45.60174 | 9.49038 | 5981 ft | 259 kts | 77° |
| 2026-05-06 16:57 | 45.60592 | 9.51535 | 5976 ft | 257 kts | 86° |
| 2026-05-06 16:57 | 45.60375 | 9.54018 | 5985 ft | 252 kts | 111° |
| 2026-05-06 16:57 | 45.59724 | 9.56366 | 6006 ft | 255 kts | 111° |
| 2026-05-06 16:57 | 45.59188 | 9.58777 | 5988 ft | 256 kts | 109° |
| 2026-05-06 16:58 | 45.58634 | 9.61163 | 6007 ft | 253 kts | 111° |
| 2026-05-06 16:58 | 45.58051 | 9.63546 | 5934 ft | 253 kts | 111° |
| 2026-05-06 16:58 | 45.57473 | 9.65917 | 6007 ft | 254 kts | 111° |
| 2026-05-06 16:58 | 45.56896 | 9.68282 | 5996 ft | 255 kts | 111° |
| 2026-05-06 16:59 | 45.56310 | 9.70664 | 5985 ft | 254 kts | 111° |
| 2026-05-06 16:59 | 45.55718 | 9.73047 | 5990 ft | 254 kts | 111° |
| 2026-05-06 16:59 | 45.55126 | 9.75439 | 5975 ft | 253 kts | 111° |
| 2026-05-06 16:59 | 45.54539 | 9.77810 | 5931 ft | 251 kts | 111° |
| 2026-05-06 17:00 | 45.53954 | 9.80169 | 5981 ft | 253 kts | 111° |
| 2026-05-06 17:00 | 45.53362 | 9.82545 | 5985 ft | 254 kts | 110° |
| 2026-05-06 17:00 | 45.52761 | 9.84903 | 5921 ft | 251 kts | 111° |
| 2026-05-06 17:00 | 45.52180 | 9.87230 | 6033 ft | 252 kts | 111° |
| 2026-05-06 17:01 | 45.51592 | 9.89613 | 6043 ft | 254 kts | 111° |
| 2026-05-06 17:01 | 45.51218 | 9.92032 | 5885 ft | 254 kts | 88° |
| 2026-05-06 17:01 | 45.51797 | 9.94304 | 5778 ft | 240 kts | 53° |
| 2026-05-06 17:01 | 45.53091 | 9.95706 | 5530 ft | 235 kts | 21° |
| 2026-05-06 17:02 | 45.54677 | 9.96071 | 5229 ft | 229 kts | 358° |
| 2026-05-06 17:02 | 45.56255 | 9.96027 | 4978 ft | 223 kts | 358° |
| 2026-05-06 17:02 | 45.57766 | 9.95975 | 4724 ft | 212 kts | 358° |
| 2026-05-06 17:02 | 45.59205 | 9.95911 | 4470 ft | 203 kts | 357° |
| 2026-05-06 17:03 | 45.60615 | 9.95762 | 4172 ft | 203 kts | 344° |
| 2026-05-06 17:03 | 45.61807 | 9.94759 | 3888 ft | 199 kts | 311° |
| 2026-05-06 17:03 | 45.62557 | 9.93142 | 3649 ft | 193 kts | 293° |
| 2026-05-06 17:03 | 45.62977 | 9.91382 | 3451 ft | 182 kts | 283° |
| 2026-05-06 17:04 | 45.63273 | 9.89672 | 3199 ft | 173 kts | 283° |
| 2026-05-06 17:04 | 45.63568 | 9.88033 | 2974 ft | 170 kts | 284° |
| 2026-05-06 17:04 | 45.63866 | 9.86403 | 2763 ft | 169 kts | 284° |
| 2026-05-06 17:04 | 45.64168 | 9.84770 | 2532 ft | 170 kts | 284° |
| 2026-05-06 17:05 | 45.64466 | 9.83169 | 2338 ft | 166 kts | 284° |
| 2026-05-06 17:05 | 45.64761 | 9.81615 | 2140 ft | 159 kts | 284° |
| 2026-05-06 17:05 | 45.65035 | 9.80130 | 1960 ft | 151 kts | 282° |
| 2026-05-06 17:05 | 45.65299 | 9.78680 | 1708 ft | 151 kts | 284° |
| 2026-05-06 17:06 | 45.65566 | 9.77220 | 1509 ft | 151 kts | 289° |
| 2026-05-06 17:06 | 45.65831 | 9.75817 | 1303 ft | 143 kts | 288° |
| 2026-05-06 17:06 | 45.66082 | 9.74457 | 1088 ft | 141 kts | 287° |
| 2026-05-06 17:06 | 45.66338 | 9.73101 | 939 ft | 141 kts | 287° |
| 2026-05-06 17:07 | 45.66582 | 9.71768 | 791 ft | 129 kts | 287° |
| 2026-05-06 17:07 | 45.66720 | 9.71042 | 790 ft | 21 kts | 285° |
| 2026-05-06 17:07 | 45.66741 | 9.70925 | 790 ft | 14 kts | 284° |
| 2026-05-06 17:07 | 45.66767 | 9.70785 | 790 ft | 15 kts | 285° |
| 2026-05-06 17:08 | 45.66793 | 9.70645 | 790 ft | 15 kts | 285° |
| 2026-05-06 17:08 | 45.66819 | 9.70507 | 790 ft | 15 kts | 285° |
| 2026-05-06 17:08 | 45.66846 | 9.70361 | 790 ft | 15 kts | 285° |
| 2026-05-06 17:08 | 45.66871 | 9.70212 | 790 ft | 15 kts | 283° |
| 2026-05-06 17:09 | 45.66888 | 9.70060 | 790 ft | 16 kts | 266° |
| 2026-05-06 17:09 | 45.66852 | 9.69913 | 790 ft | 16 kts | 241° |
| 2026-05-06 17:09 | 45.66798 | 9.69773 | 790 ft | 16 kts | 250° |
| 2026-05-06 17:09 | 45.66779 | 9.69706 | 790 ft | 6 kts | 215° |
| 2026-05-06 17:10 | 45.66737 | 9.69687 | 790 ft | 7 kts | 195° |
| 2026-05-06 17:10 | 45.66710 | 9.69677 | 790 ft | 3 kts | 194° |
| 2026-05-06 17:10 | 45.66707 | 9.69676 | 790 ft | 0 kts | 194° |